sim
Sign-in with your pilot id or email,
or register
Callsign
Passwort

Schedule Details

Flight Number: OEO1683
Departure: Madrid Barajas Airport (LEMD) at 13:20
Arrival: Munich Airport (EDDM) at 15:45

Weather Information
Getting current METAR information for LEMD 281100Z VRB02KT CAVOK 17/05 Q1020 NOSIG
Getting current METAR information for EDDM 281050Z 26004KT 210V310 9999 FEW007 09/07 Q1011 NOSIG

Schedule Frequency

Route Map